Time;durP1;ratioP1;P1;durP2;ratioP2;P2;SDS_P1;SDS_P2;PMS_P1;PMS_P2;Temp;Humidity;BMP_temperature;BMP_pressure;BME280_temperature;BME280_humidity;BME280_pressure;Samples;Min_cycle;Max_cycle;Signal;HPM_P1;HPM_P2
2022/04/17 00:01:32;;;;;;;2.83;0.60;;;;;;;18.58;34.29;96597.00;5091225;28;20051;-27
2022/04/17 00:03:58;;;;;;;1.65;0.70;;;;;;;18.66;34.29;96592.66;5090804;28;20027;-28
2022/04/17 00:06:24;;;;;;;1.92;0.90;;;;;;;18.54;34.40;96597.16;5091150;28;20040;-27
2022/04/17 00:08:50;;;;;;;1.42;0.50;;;;;;;18.70;33.94;96590.44;5090790;28;20422;-28
2022/04/17 00:11:16;;;;;;;4.47;0.82;;;;;;;18.52;34.35;96602.38;5090237;28;20117;-27
2022/04/17 00:13:44;;;;;;;4.93;0.93;;;;;;;18.72;33.88;96596.22;5089381;28;20024;-28
2022/04/17 00:16:10;;;;;;;1.70;0.70;;;;;;;18.53;34.33;96584.66;5090411;28;20097;-27
2022/04/17 00:18:36;;;;;;;2.58;0.95;;;;;;;18.24;35.16;96584.66;5072600;28;20492;-27
2022/04/17 00:21:03;;;;;;;0.90;0.57;;;;;;;18.18;35.31;96575.56;5091141;28;20028;-27
2022/04/17 00:23:28;;;;;;;1.52;0.70;;;;;;;18.29;35.09;96576.53;5091030;28;20414;-28
2022/04/17 00:25:53;;;;;;;1.80;0.70;;;;;;;18.58;34.66;96583.25;5091012;28;20187;-28
2022/04/17 00:28:19;;;;;;;1.60;0.70;;;;;;;18.55;34.34;96571.19;5090551;28;20047;-28
2022/04/17 00:30:44;;;;;;;1.95;0.70;;;;;;;18.66;34.36;96570.66;5090944;28;20468;-27
2022/04/17 00:33:10;;;;;;;1.48;0.90;;;;;;;18.44;34.71;96567.50;5072764;28;20416;-27
2022/04/17 00:35:41;;;;;;;1.70;0.60;;;;;;;18.52;34.69;96565.91;5090873;28;20104;-27
2022/04/17 00:38:06;;;;;;;1.38;0.70;;;;;;;18.65;34.53;96555.41;5090981;28;20020;-27
2022/04/17 00:40:32;;;;;;;2.05;0.80;;;;;;;18.57;34.75;96554.25;5094273;28;20537;-27
2022/04/17 00:42:59;;;;;;;3.63;1.20;;;;;;;18.48;34.79;96548.88;5094450;28;20028;-28
2022/04/17 00:45:26;;;;;;;2.25;0.80;;;;;;;18.38;35.13;96541.97;5094462;28;20391;-27
2022/04/17 00:47:51;;;;;;;1.30;0.77;;;;;;;18.37;35.03;96538.47;5094361;28;20039;-27
2022/04/17 00:50:18;;;;;;;2.08;0.57;;;;;;;18.43;35.08;96541.28;5094190;28;20024;-27
2022/04/17 00:52:45;;;;;;;1.20;0.63;;;;;;;18.57;34.45;96529.53;5092329;28;20028;-27
2022/04/17 00:55:15;;;;;;;3.15;0.70;;;;;;;18.69;34.28;96536.72;5094351;28;20024;-27
2022/04/17 00:57:41;;;;;;;1.77;0.80;;;;;;;18.62;34.49;96529.66;5094143;28;20020;-27
2022/04/17 01:00:09;;;;;;;2.15;0.80;;;;;;;18.55;34.78;96542.97;5094064;28;20032;-27
2022/04/17 01:02:34;;;;;;;0.90;0.60;;;;;;;18.61;34.50;96541.88;5094050;28;20043;-27
2022/04/17 01:05:00;;;;;;;1.63;0.68;;;;;;;18.61;34.32;96549.34;5093730;28;20028;-27
2022/04/17 01:07:26;;;;;;;0.93;0.60;;;;;;;18.60;34.42;96548.59;5093973;28;20028;-27
2022/04/17 01:09:51;;;;;;;1.58;0.75;;;;;;;18.58;34.43;96550.28;5094036;28;20035;-28
2022/04/17 01:12:17;;;;;;;1.70;0.80;;;;;;;18.33;35.01;96548.88;5093948;28;20027;-27
2022/04/17 01:14:44;;;;;;;2.35;0.68;;;;;;;18.50;34.79;96546.41;5093938;28;20032;-27
2022/04/17 01:17:11;;;;;;;2.20;0.70;;;;;;;18.61;34.39;96547.38;5093634;28;20463;-27
2022/04/17 01:19:39;;;;;;;1.58;0.50;;;;;;;18.41;34.76;96549.25;5093811;28;20476;-27
2022/04/17 01:22:12;;;;;;;3.50;1.10;;;;;;;18.15;35.34;96544.34;5075323;28;20028;-25
2022/04/17 01:27:24;;;;;;;3.17;0.82;;;;;;;18.69;34.34;96531.22;5093202;28;20051;-25
2022/04/17 01:29:51;;;;;;;2.40;0.70;;;;;;;18.66;34.31;96540.44;5075214;28;20123;-25
2022/04/17 01:32:16;;;;;;;0.90;0.60;;;;;;;18.54;34.57;96530.50;5075139;28;20488;-25
2022/04/17 01:34:43;;;;;;;2.35;0.80;;;;;;;18.38;34.87;96533.72;5093617;28;20024;-25
2022/04/17 01:37:09;;;;;;;3.05;0.90;;;;;;;18.48;34.89;96510.41;5093405;28;20427;-25
2022/04/17 01:39:35;;;;;;;2.53;0.50;;;;;;;18.32;34.77;96517.16;5093337;28;20028;-25
2022/04/17 01:42:02;;;;;;;2.47;0.80;;;;;;;18.40;34.87;96517.53;5074963;28;20036;-25
2022/04/17 01:44:28;;;;;;;3.85;0.70;;;;;;;18.27;35.09;96515.09;5093191;28;20437;-25
2022/04/17 01:46:55;;;;;;;1.50;0.77;;;;;;;18.36;34.82;96511.47;5093095;28;20111;-25
2022/04/17 01:49:22;;;;;;;3.03;0.88;;;;;;;18.51;34.41;96506.72;5092648;28;20024;-25
2022/04/17 01:51:48;;;;;;;4.32;0.82;;;;;;;18.45;34.70;96511.38;5072871;28;20031;-25
2022/04/17 01:54:16;;;;;;;3.35;0.77;;;;;;;18.49;34.75;96518.19;5093118;28;20102;-25
2022/04/17 01:56:42;;;;;;;1.80;0.80;;;;;;;18.51;34.59;96510.22;5092833;28;20027;-25
2022/04/17 01:59:09;;;;;;;2.67;1.00;;;;;;;18.51;34.58;96488.25;5092903;28;20047;-25
2022/04/17 02:01:35;;;;;;;1.65;0.80;;;;;;;18.47;34.48;96498.69;5093037;28;20031;-25
2022/04/17 02:04:02;;;;;;;4.43;1.35;;;;;;;18.54;34.35;96497.53;5092686;28;20093;-25
2022/04/17 02:06:27;;;;;;;1.98;1.00;;;;;;;18.52;34.17;96503.50;5092871;28;20063;-25
2022/04/17 02:08:53;;;;;;;3.53;1.02;;;;;;;18.34;34.59;96494.72;5092802;28;20067;-25
2022/04/17 02:11:20;;;;;;;4.32;1.00;;;;;;;18.31;34.61;96486.19;5092759;28;20028;-25
2022/04/17 02:13:46;;;;;;;3.67;0.98;;;;;;;17.98;35.19;96490.41;5092520;28;20475;-25
2022/04/17 02:16:13;;;;;;;4.50;1.02;;;;;;;18.22;34.62;96488.31;5092454;28;20445;-25
2022/04/17 02:18:38;;;;;;;5.32;0.95;;;;;;;18.26;34.50;96478.66;5092414;28;20023;-25
2022/04/17 02:21:04;;;;;;;4.70;1.10;;;;;;;18.31;34.41;96471.72;5092476;28;20439;-25
2022/04/17 02:23:29;;;;;;;4.28;1.13;;;;;;;18.28;34.50;96483.66;5092277;28;20490;-25
2022/04/17 02:25:55;;;;;;;3.03;1.10;;;;;;;18.31;34.24;96480.72;5092548;28;20047;-25
2022/04/17 02:28:21;;;;;;;4.43;1.08;;;;;;;18.07;34.15;96471.84;5081669;28;20040;-25
2022/04/17 02:30:47;;;;;;;3.75;1.00;;;;;;;18.24;34.20;96485.84;5093905;28;20024;-25
2022/04/17 02:33:12;;;;;;;3.75;0.93;;;;;;;18.20;34.18;96496.25;5093311;28;20131;-25
2022/04/17 02:35:38;;;;;;;4.95;1.45;;;;;;;18.27;34.00;96488.41;5094322;28;20073;-25
2022/04/17 02:38:04;;;;;;;3.65;0.95;;;;;;;18.21;34.04;96482.06;5093799;28;20024;-25
2022/04/17 02:40:31;;;;;;;5.90;1.15;;;;;;;18.26;33.80;96484.16;5092964;28;20016;-25
2022/04/17 02:42:57;;;;;;;4.63;1.08;;;;;;;18.07;34.41;96480.06;5094167;28;20023;-25
2022/04/17 02:45:23;;;;;;;2.50;1.00;;;;;;;18.29;33.62;96476.94;5094027;28;20073;-25
2022/04/17 02:47:51;;;;;;;3.10;0.93;;;;;;;18.33;33.66;96471.25;5093792;28;20020;-25
2022/04/17 02:50:18;;;;;;;3.40;1.27;;;;;;;18.29;33.57;96465.97;5094056;28;20138;-25
2022/04/17 02:52:45;;;;;;;2.85;1.10;;;;;;;18.28;33.39;96443.25;5093974;28;20062;-25
2022/04/17 02:55:11;;;;;;;4.40;1.30;;;;;;;18.09;33.81;96446.69;5093923;28;20020;-25
2022/04/17 02:57:37;;;;;;;1.75;0.80;;;;;;;17.89;34.09;96439.91;5092857;28;20028;-25
2022/04/17 03:00:07;;;;;;;5.03;1.00;;;;;;;18.00;34.05;96427.56;5093786;28;20039;-25
2022/04/17 03:05:42;;;;;;;6.15;1.23;;;;;;;18.01;33.82;96438.09;5094145;28;20039;-25
2022/04/17 03:08:09;;;;;;;5.43;1.60;;;;;;;18.02;33.34;96436.84;5094056;28;20070;-25
2022/04/17 03:10:40;;;;;;;3.50;1.40;;;;;;;18.11;33.28;96433.25;5093837;28;20024;-25
2022/04/17 03:13:06;;;;;;;2.50;1.30;;;;;;;18.22;33.50;96444.38;5093791;28;20498;-25
2022/04/17 03:15:36;;;;;;;3.75;1.55;;;;;;;18.22;32.88;96438.91;5093604;28;20065;-25
2022/04/17 03:18:02;;;;;;;3.65;1.13;;;;;;;17.95;33.69;96434.47;5093655;28;20024;-25
2022/04/17 03:20:28;;;;;;;5.65;1.23;;;;;;;18.14;33.26;96430.31;5092224;28;20533;-25
2022/04/17 03:22:54;;;;;;;5.50;1.73;;;;;;;18.15;33.24;96417.34;5093887;28;20021;-25
2022/04/17 03:25:20;;;;;;;7.47;1.73;;;;;;;18.18;33.00;96417.13;5093587;28;20023;-25
2022/04/17 03:27:46;;;;;;;5.03;1.30;;;;;;;18.14;33.18;96424.06;5101461;28;20044;-25
2022/04/17 03:30:16;;;;;;;6.10;1.88;;;;;;;18.00;33.19;96409.13;5113677;28;20032;-25
2022/04/17 03:32:46;;;;;;;5.93;1.40;;;;;;;18.13;33.07;96404.09;5114055;28;20023;-25
2022/04/17 03:35:13;;;;;;;5.22;1.73;;;;;;;17.94;33.51;96420.00;5113991;28;20371;-24
2022/04/17 03:37:42;;;;;;;3.20;1.15;;;;;;;18.04;33.01;96415.19;5113781;28;20028;-25
2022/04/17 03:40:09;;;;;;;4.22;1.35;;;;;;;18.03;32.97;96418.41;5113796;28;20020;-25
2022/04/17 03:42:35;;;;;;;4.28;1.50;;;;;;;18.05;33.06;96418.69;5113641;28;20119;-25
2022/04/17 03:45:06;;;;;;;4.45;1.48;;;;;;;18.05;32.99;96424.91;5113629;28;20023;-25
2022/04/17 03:47:35;;;;;;;4.75;1.85;;;;;;;17.91;33.12;96415.50;5113821;28;20024;-25
2022/04/17 03:50:03;;;;;;;4.22;1.60;;;;;;;17.96;33.09;96422.28;5113852;28;20448;-25
2022/04/17 03:52:41;;;;;;;4.15;1.20;;;;;;;17.91;33.12;96426.47;5113901;28;20034;-24
2022/04/17 03:55:07;;;;;;;4.13;1.40;;;;;;;17.89;33.15;96423.44;5095351;28;20365;-25
2022/04/17 03:57:33;;;;;;;4.28;1.20;;;;;;;17.96;32.88;96422.28;5113689;28;20024;-25
2022/04/17 03:59:59;;;;;;;7.82;1.77;;;;;;;17.73;33.17;96415.69;5113547;28;20024;-25
2022/04/17 04:02:25;;;;;;;5.43;1.73;;;;;;;17.88;32.73;96410.94;5113465;28;20030;-25
2022/04/17 04:04:50;;;;;;;3.70;1.50;;;;;;;17.89;32.90;96415.19;5113400;28;20046;-25
2022/04/17 04:07:16;;;;;;;4.88;2.15;;;;;;;17.73;33.34;96412.19;5113394;28;20031;-25
2022/04/17 04:09:43;;;;;;;5.07;1.40;;;;;;;17.82;33.02;96414.81;5113306;28;20038;-25
2022/04/17 04:12:08;;;;;;;5.13;1.27;;;;;;;17.49;33.52;96423.97;5113674;28;20122;-25
2022/04/17 04:14:34;;;;;;;6.07;1.35;;;;;;;17.79;33.26;96419.28;5117349;28;20273;-25
2022/04/17 04:17:00;;;;;;;7.05;1.58;;;;;;;17.91;32.58;96410.00;5117303;28;20340;-25
2022/04/17 04:19:25;;;;;;;5.75;1.50;;;;;;;17.83;32.76;96419.06;5117354;28;20390;-24
2022/04/17 04:21:51;;;;;;;5.07;1.60;;;;;;;17.89;32.70;96406.97;5099256;28;20101;-25
2022/04/17 04:24:23;;;;;;;8.98;1.45;;;;;;;17.78;33.04;96425.25;5116799;28;20028;-25
2022/04/17 04:28:33;;;;;;;6.50;2.08;;;;;;;17.66;32.89;96416.06;5109676;28;20468;-25
2022/04/17 04:29:34;;;;;;;2.97;1.20;;;;;;;17.91;32.65;96404.50;5074235;28;20139;-25
2022/04/17 04:32:00;;;;;;;7.05;1.35;;;;;;;17.84;32.52;96417.84;5075901;28;20029;-25
2022/04/17 04:34:25;;;;;;;4.72;1.52;;;;;;;17.46;33.12;96422.16;5076450;28;20043;-25
2022/04/17 04:36:51;;;;;;;5.40;1.80;;;;;;;17.81;32.70;96421.53;5076176;28;20081;-25
2022/04/17 04:39:16;;;;;;;3.25;1.30;;;;;;;17.59;32.92;96395.22;5076311;28;20538;-25
2022/04/17 04:41:42;;;;;;;5.15;1.58;;;;;;;17.85;32.41;96400.91;5076134;28;20024;-25
2022/04/17 04:44:07;;;;;;;5.50;1.40;;;;;;;17.82;32.01;96388.13;5076008;28;20086;-25
2022/04/17 04:46:33;;;;;;;3.15;1.20;;;;;;;17.48;32.82;96403.25;5076177;28;20407;-25
2022/04/17 04:51:42;;;;;;;4.72;1.60;;;;;;;17.59;32.95;96403.44;5076026;28;20388;-25
2022/04/17 04:54:08;;;;;;;5.65;1.50;;;;;;;17.45;32.98;96412.41;5075872;28;20016;-25
2022/04/17 04:56:34;;;;;;;7.15;1.80;;;;;;;17.52;32.82;96411.31;5076003;28;20031;-24
2022/04/17 04:58:59;;;;;;;3.33;1.20;;;;;;;17.55;32.90;96408.38;5075823;28;20028;-25
2022/04/17 05:01:25;;;;;;;3.95;2.08;;;;;;;17.74;32.57;96421.91;5075915;28;20025;-25
2022/04/17 05:03:51;;;;;;;5.10;1.60;;;;;;;17.49;32.60;96415.00;5075601;28;20063;-25
2022/04/17 05:06:17;;;;;;;5.53;1.80;;;;;;;17.35;33.02;96407.50;5074931;28;20713;-25
2022/04/17 05:08:43;;;;;;;6.97;1.50;;;;;;;17.64;32.60;96409.53;5075809;28;20453;-25
2022/04/17 05:11:09;;;;;;;5.90;1.58;;;;;;;17.64;32.33;96412.28;5075663;28;20028;-25
2022/04/17 05:13:34;;;;;;;3.42;1.40;;;;;;;17.55;32.54;96422.09;5075535;28;20020;-25
2022/04/17 05:16:00;;;;;;;5.60;1.40;;;;;;;17.60;32.41;96418.69;5076146;28;20488;-25
2022/04/17 05:18:26;;;;;;;5.03;1.70;;;;;;;17.75;32.28;96423.44;5075646;28;20100;-25
2022/04/17 05:20:52;;;;;;;6.78;1.60;;;;;;;17.67;32.43;96420.31;5075327;28;20032;-25
2022/04/17 05:23:26;;;;;;;3.65;1.77;;;;;;;17.70;32.22;96413.88;5074035;28;20565;-25
2022/04/17 05:26:00;;;;;;;4.88;1.60;;;;;;;17.73;32.16;96406.69;5073327;28;20020;-25
2022/04/17 05:28:28;;;;;;;4.32;1.52;;;;;;;17.73;32.30;96417.66;5086683;28;20170;-25
2022/04/17 05:30:54;;;;;;;5.00;1.40;;;;;;;17.75;32.04;96415.97;5093514;28;20039;-25
2022/04/17 05:33:21;;;;;;;4.95;1.40;;;;;;;17.57;32.20;96414.13;5093340;28;20031;-25
2022/04/17 05:35:48;;;;;;;5.38;1.50;;;;;;;17.47;32.54;96422.91;5093374;28;20032;-25
2022/04/17 05:38:13;;;;;;;4.20;1.30;;;;;;;17.37;32.66;96419.53;5093355;28;20035;-25
2022/04/17 05:40:41;;;;;;;5.45;1.50;;;;;;;17.52;31.99;96416.78;5075230;28;20020;-25
2022/04/17 05:43:08;;;;;;;3.75;1.50;;;;;;;17.47;32.60;96420.19;5093419;28;20039;-25
2022/04/17 05:45:34;;;;;;;5.75;1.50;;;;;;;17.59;32.06;96441.09;5091835;28;20093;-24
2022/04/17 05:48:00;;;;;;;3.38;1.60;;;;;;;17.65;32.08;96441.22;5093302;28;20028;-25
2022/04/17 05:50:28;;;;;;;4.63;1.60;;;;;;;17.35;32.64;96426.69;5092904;28;20043;-25
2022/04/17 05:52:54;;;;;;;5.30;1.52;;;;;;;17.55;32.22;96444.03;5093072;28;20054;-25
2022/04/17 05:55:20;;;;;;;2.75;1.70;;;;;;;17.54;32.14;96439.00;5093028;28;20044;-24
2022/04/17 05:57:46;;;;;;;4.47;1.50;;;;;;;17.47;32.50;96450.34;5093067;28;20028;-25
2022/04/17 06:00:12;;;;;;;2.85;1.40;;;;;;;17.54;32.27;96458.97;5092884;28;20036;-25
2022/04/17 06:02:38;;;;;;;4.00;1.73;;;;;;;17.03;33.31;96453.00;5092718;28;20115;-25
2022/04/17 06:05:05;;;;;;;3.35;1.50;;;;;;;17.36;32.48;96448.16;5093036;28;20070;-25
2022/04/17 06:07:31;;;;;;;4.85;2.00;;;;;;;17.44;32.30;96449.28;5092862;28;20023;-25
2022/04/17 06:10:09;;;;;;;5.10;1.70;;;;;;;17.47;32.29;96453.84;5092859;28;20048;-25
2022/04/17 06:12:35;;;;;;;5.20;1.52;;;;;;;17.48;32.48;96446.38;5092918;28;20101;-25
2022/04/17 06:15:02;;;;;;;4.88;1.67;;;;;;;17.65;31.82;96430.25;5092271;28;20020;-25
2022/04/17 06:17:27;;;;;;;2.92;1.80;;;;;;;17.77;31.85;96446.44;5092666;28;20028;-25
2022/04/17 06:19:53;;;;;;;3.22;1.50;;;;;;;17.69;32.13;96441.78;5092685;28;20031;-24
2022/04/17 06:22:19;;;;;;;4.88;2.30;;;;;;;17.56;32.05;96440.03;5092166;28;20471;-25
2022/04/17 06:24:45;;;;;;;6.32;1.50;;;;;;;17.49;32.29;96443.16;5092225;28;20032;-25
2022/04/17 06:27:12;;;;;;;4.32;1.80;;;;;;;17.44;32.17;96432.09;5092219;28;20109;-25
2022/04/17 06:29:37;;;;;;;5.43;1.85;;;;;;;17.54;32.40;96441.75;5092629;28;20047;-25
2022/04/17 06:32:03;;;;;;;3.63;1.42;;;;;;;17.53;32.22;96451.97;5092542;28;20024;-25
2022/04/17 06:34:28;;;;;;;5.80;1.67;;;;;;;17.57;32.15;96438.81;5092382;28;20024;-25
2022/04/17 06:36:54;;;;;;;4.90;1.98;;;;;;;17.26;32.73;96443.97;5073692;28;20032;-25
2022/04/17 06:39:19;;;;;;;3.08;1.58;;;;;;;17.43;32.15;96464.22;5092326;28;20030;-25
2022/04/17 06:41:45;;;;;;;4.38;1.90;;;;;;;17.31;32.68;96443.31;5092161;28;20436;-25
2022/04/17 06:44:13;;;;;;;3.65;1.70;;;;;;;17.52;32.38;96455.94;5091845;28;20107;-25
2022/04/17 06:46:42;;;;;;;4.25;2.05;;;;;;;17.57;32.01;96441.56;5090076;28;20621;-24
2022/04/17 06:49:08;;;;;;;3.47;1.70;;;;;;;17.55;32.42;96449.53;5091512;28;20498;-25
2022/04/17 06:51:33;;;;;;;4.35;1.88;;;;;;;17.55;32.30;96455.00;5091741;28;20051;-25
2022/04/17 06:53:59;;;;;;;4.35;1.80;;;;;;;17.05;32.77;96456.03;5091749;28;20060;-25
2022/04/17 06:56:26;;;;;;;6.38;1.60;;;;;;;16.92;32.99;96458.25;5091766;28;20544;-24
2022/04/17 06:58:51;;;;;;;4.60;1.92;;;;;;;16.91;33.08;96462.97;5091929;28;20484;-25
2022/04/17 07:01:17;;;;;;;2.92;1.55;;;;;;;17.11;32.84;96456.88;5091567;28;20106;-25
2022/04/17 07:03:44;;;;;;;4.50;1.98;;;;;;;17.18;32.68;96478.47;5091594;28;20388;-25
2022/04/17 07:06:11;;;;;;;4.00;1.42;;;;;;;17.18;32.69;96460.00;5091688;28;20106;-25
2022/04/17 07:08:37;;;;;;;4.20;1.80;;;;;;;17.10;33.03;96474.56;5091361;28;20054;-25
2022/04/17 07:11:04;;;;;;;6.03;1.95;;;;;;;16.31;33.73;96463.13;5091465;28;20020;-25
2022/04/17 07:13:30;;;;;;;5.60;1.70;;;;;;;17.00;33.16;96470.38;5091019;28;20451;-24
2022/04/17 07:15:56;;;;;;;6.65;2.13;;;;;;;16.60;33.90;96465.25;5091359;28;20023;-25
2022/04/17 07:18:22;;;;;;;3.47;2.00;;;;;;;17.18;32.66;96468.25;5091355;28;20107;-25
2022/04/17 07:20:49;;;;;;;6.15;2.13;;;;;;;17.21;32.62;96467.31;5091107;28;20039;-25
2022/04/17 07:23:14;;;;;;;5.18;2.40;;;;;;;17.21;32.60;96467.31;5091261;28;20024;-25
2022/04/17 07:25:41;;;;;;;7.03;2.03;;;;;;;16.98;32.35;96468.09;5090823;28;20028;-24
2022/04/17 07:28:14;;;;;;;6.55;2.30;;;;;;;17.24;32.57;96471.84;5072813;28;20466;-23
2022/04/17 07:30:40;;;;;;;8.70;3.22;;;;;;;17.11;32.85;96459.63;5091290;28;20027;-25
2022/04/17 07:33:05;;;;;;;5.57;1.73;;;;;;;17.35;32.38;96451.38;5091105;28;20055;-25
2022/04/17 07:35:31;;;;;;;5.85;2.20;;;;;;;17.32;32.27;96466.75;5091159;28;20102;-25
2022/04/17 07:38:02;;;;;;;5.68;2.50;;;;;;;17.51;32.06;96454.41;5091191;28;20023;-24
2022/04/17 07:40:32;;;;;;;6.30;2.03;;;;;;;16.94;31.97;96467.50;5090724;28;20541;-25
2022/04/17 07:42:59;;;;;;;5.05;1.90;;;;;;;16.93;33.13;96476.22;5094672;28;20467;-25
2022/04/17 07:45:29;;;;;;;5.25;2.53;;;;;;;17.04;32.90;96457.25;5110176;28;20028;-24
2022/04/17 07:48:02;;;;;;;6.28;2.15;;;;;;;17.20;32.52;96452.09;5113427;28;20038;-25
2022/04/17 07:50:29;;;;;;;2.65;1.90;;;;;;;16.87;33.52;96474.09;5115511;28;20123;-25
2022/04/17 07:52:59;;;;;;;6.72;2.42;;;;;;;16.90;33.22;96471.66;5115518;28;20040;-25
2022/04/17 07:55:25;;;;;;;7.55;2.10;;;;;;;16.93;32.31;96440.59;5115742;28;20030;-25
2022/04/17 08:00:44;;;;;;;4.40;2.03;;;;;;;16.52;33.25;96476.56;5115722;28;20505;-25
2022/04/17 08:03:20;;;;;;;4.95;2.40;;;;;;;16.64;33.41;96482.31;5115457;28;20076;-25
2022/04/17 08:05:47;;;;;;;4.28;2.30;;;;;;;16.84;33.01;96490.72;5115446;28;20028;-25
2022/04/17 08:08:13;;;;;;;5.47;2.42;;;;;;;16.68;33.32;96472.72;5115465;28;20701;-25
2022/04/17 08:10:39;;;;;;;7.32;2.85;;;;;;;16.68;33.00;96480.94;5115403;28;20027;-25
2022/04/17 08:13:05;;;;;;;4.85;2.60;;;;;;;16.98;33.06;96497.47;5114938;28;20558;-25
2022/04/17 08:15:31;;;;;;;6.15;2.72;;;;;;;17.13;32.58;96477.13;5115421;28;20045;-25
2022/04/17 08:17:57;;;;;;;5.70;2.78;;;;;;;16.93;33.20;96487.16;5115422;28;20019;-25
2022/04/17 08:20:23;;;;;;;5.20;2.42;;;;;;;16.89;32.88;96492.81;5115384;28;20090;-25
2022/04/17 08:22:48;;;;;;;5.13;2.22;;;;;;;17.02;32.54;96495.31;5115134;28;20023;-25
2022/04/17 08:25:14;;;;;;;4.90;2.05;;;;;;;17.00;32.88;96481.31;5096311;28;20085;-24
2022/04/17 08:27:51;;;;;;;11.20;2.97;;;;;;;17.10;32.43;96491.00;5115029;28;20130;-25
2022/04/17 08:30:25;;;;;;;5.47;2.50;;;;;;;17.05;32.87;96486.19;5107872;28;20020;-25
2022/04/17 08:32:51;;;;;;;7.68;2.80;;;;;;;16.93;33.20;96496.16;5094543;28;20027;-24
2022/04/17 08:35:17;;;;;;;5.97;2.92;;;;;;;17.09;32.69;96487.50;5076372;28;20353;-25
2022/04/17 08:37:43;;;;;;;3.78;2.60;;;;;;;16.72;33.39;96492.44;5094509;28;20036;-25
2022/04/17 08:40:10;;;;;;;5.82;2.67;;;;;;;17.01;32.91;96485.59;5094430;28;20078;-25
2022/04/17 08:42:36;;;;;;;4.78;2.22;;;;;;;16.92;33.15;96480.94;5094582;28;20035;-24
2022/04/17 08:45:02;;;;;;;6.00;2.60;;;;;;;17.17;32.54;96502.38;5091913;28;20103;-25
2022/04/17 08:47:28;;;;;;;5.75;2.60;;;;;;;16.90;33.35;96486.13;5094472;28;20422;-24
2022/04/17 08:49:55;;;;;;;8.65;3.33;;;;;;;16.85;33.16;96500.44;5093934;28;20098;-27
2022/04/17 08:52:22;;;;;;;6.78;2.50;;;;;;;16.62;33.77;96488.25;5075770;28;20024;-27
2022/04/17 08:54:48;;;;;;;9.90;2.53;;;;;;;16.81;33.41;96497.88;5094213;28;20031;-27
2022/04/17 08:57:16;;;;;;;6.55;2.17;;;;;;;17.09;33.07;96495.72;5094037;28;20031;-27
2022/04/17 08:59:42;;;;;;;5.63;2.60;;;;;;;17.45;32.48;96491.94;5074539;28;20032;-27
2022/04/17 09:02:12;;;;;;;4.95;2.40;;;;;;;17.25;32.54;96500.03;5093545;28;20059;-27
2022/04/17 09:04:39;;;;;;;6.03;2.25;;;;;;;16.68;33.59;96500.09;5093997;28;20024;-27
2022/04/17 09:07:10;;;;;;;4.85;2.28;;;;;;;16.58;33.93;96501.31;5095769;28;20051;-28
2022/04/17 09:10:00;;;;;;;5.75;2.78;;;;;;;17.02;33.53;96495.31;5077496;28;20472;-27
2022/04/17 09:12:26;;;;;;;6.05;2.30;;;;;;;17.23;32.98;96516.94;5097087;28;20031;-27
2022/04/17 09:14:55;;;;;;;5.15;2.42;;;;;;;16.70;33.91;96502.34;5105377;28;20027;-27
2022/04/17 09:17:36;;;;;;;5.60;2.33;;;;;;;17.05;33.27;96488.91;5111453;28;20032;-27
2022/04/17 09:20:04;;;;;;;4.47;2.22;;;;;;;16.83;33.66;96506.38;5113381;28;20080;-27
2022/04/17 09:22:45;;;;;;;7.65;2.75;;;;;;;17.31;32.95;96489.91;5110571;28;20122;-27
2022/04/17 09:25:12;;;;;;;4.28;2.60;;;;;;;17.16;33.41;96508.31;5098605;28;20348;-27
2022/04/17 09:27:41;;;;;;;3.67;2.35;;;;;;;17.18;33.20;96498.38;5113908;28;20130;-27
2022/04/17 09:30:29;;;;;;;5.63;2.60;;;;;;;17.40;32.92;96497.31;5113977;28;20111;-27
2022/04/17 09:32:56;;;;;;;4.40;2.30;;;;;;;16.86;33.68;96521.88;5113919;28;20092;-27
2022/04/17 09:35:26;;;;;;;4.22;2.47;;;;;;;17.04;33.51;96515.56;5095229;28;20047;-27
2022/04/17 09:37:59;;;;;;;5.25;2.50;;;;;;;16.86;33.68;96505.47;5113905;28;20498;-27
2022/04/17 09:40:27;;;;;;;8.38;2.88;;;;;;;16.97;33.56;96513.16;5113608;28;20027;-27
2022/04/17 09:43:14;;;;;;;3.30;2.10;;;;;;;17.24;33.17;96502.00;5113856;28;20019;-27
2022/04/17 09:45:59;;;;;;;5.57;2.35;;;;;;;17.10;33.53;96504.69;5113474;28;20023;-27
2022/04/17 09:48:25;;;;;;;3.50;2.20;;;;;;;17.26;33.06;96517.22;5113404;28;20399;-28
2022/04/17 09:50:50;;;;;;;4.10;2.05;;;;;;;17.37;32.77;96509.22;5113616;28;20020;-27
2022/04/17 09:53:38;;;;;;;4.45;2.22;;;;;;;17.15;33.22;96509.53;5113320;28;20027;-27
2022/04/17 09:56:11;;;;;;;7.38;2.58;;;;;;;16.49;34.57;96504.84;5113530;28;20035;-27
2022/04/17 09:58:38;;;;;;;;;;;;;;;16.88;33.53;96503.00;5113605;28;20024;-27
2022/04/17 10:01:06;;;;;;;4.70;2.30;;;;;;;16.96;33.39;96519.09;5112919;28;19908;-27
2022/04/17 10:03:35;;;;;;;6.63;2.25;;;;;;;17.29;33.12;96505.34;5113076;28;20035;-27
2022/04/17 10:06:02;;;;;;;6.53;2.53;;;;;;;17.01;33.63;96511.00;5097010;28;20020;-27
2022/04/17 10:08:28;;;;;;;3.83;2.40;;;;;;;17.20;33.18;96511.63;5103587;28;20034;-27
2022/04/17 10:10:54;;;;;;;4.35;2.13;;;;;;;17.55;32.60;96512.59;5108380;28;20459;-27
2022/04/17 10:13:21;;;;;;;7.20;2.67;;;;;;;17.13;33.41;96506.50;5109304;28;20066;-27
2022/04/17 10:15:49;;;;;;;3.63;2.00;;;;;;;16.73;34.09;96531.56;5094245;28;20439;-27
2022/04/17 10:18:17;;;;;;;6.03;2.17;;;;;;;16.99;33.50;96507.22;5094591;28;20081;-27
2022/04/17 10:20:53;;;;;;;3.95;1.80;;;;;;;17.19;33.29;96499.91;5094586;28;20047;-27
2022/04/17 10:23:21;;;;;;;4.28;2.00;;;;;;;17.18;33.21;96514.81;5113268;28;20038;-27
2022/04/17 10:25:48;;;;;;;5.05;2.03;;;;;;;16.93;33.44;96506.34;5114741;28;20024;-27
2022/04/17 10:28:16;;;;;;;7.07;2.42;;;;;;;16.97;33.56;96495.94;5114096;28;20136;-27
2022/04/17 10:31:09;;;;;;;5.70;2.17;;;;;;;17.21;32.68;96502.19;5114763;28;20020;-27
2022/04/17 10:33:46;;;;;;;4.85;2.33;;;;;;;17.51;32.45;96495.56;5114057;28;20140;-27
2022/04/17 10:36:18;;;;;;;4.68;1.95;;;;;;;17.33;32.84;96511.38;5114611;28;20391;-27
2022/04/17 10:39:08;;;;;;;3.72;1.88;;;;;;;17.26;33.04;96501.53;5114437;28;20020;-27
2022/04/17 10:41:35;;;;;;;4.68;2.20;;;;;;;17.04;33.46;96507.34;5114306;28;20016;-27
2022/04/17 10:44:03;;;;;;;5.60;1.77;;;;;;;17.18;33.21;96490.16;5114296;28;20107;-27
2022/04/17 10:46:29;;;;;;;5.80;2.00;;;;;;;17.49;32.73;96491.75;5114518;28;20034;-27
2022/04/17 10:48:57;;;;;;;4.38;1.88;;;;;;;17.16;32.81;96481.69;5114264;28;20019;-27
2022/04/17 10:51:30;;;;;;;4.40;2.03;;;;;;;17.51;32.73;96484.59;5114331;28;20392;-27
2022/04/17 10:54:07;;;;;;;6.03;2.08;;;;;;;17.18;33.36;96473.00;5113844;28;20034;-27
2022/04/17 10:56:53;;;;;;;7.13;2.05;;;;;;;17.42;33.07;96470.97;5114239;28;20368;-27
2022/04/17 10:59:20;;;;;;;2.38;1.40;;;;;;;17.69;32.53;96474.69;5113616;28;20066;-27
2022/04/17 11:01:52;;;;;;;5.28;1.73;;;;;;;17.37;32.73;96466.13;5114665;28;20035;-27
2022/04/17 11:04:37;;;;;;;3.00;1.65;;;;;;;17.64;32.42;96467.13;5114261;28;20028;-27
2022/04/17 11:07:11;;;;;;;2.72;1.52;;;;;;;17.53;32.63;96464.91;5095921;28;20082;-27
2022/04/17 11:09:42;;;;;;;4.93;1.83;;;;;;;17.56;32.69;96458.47;5114248;28;20027;-27
2022/04/17 11:12:11;;;;;;;3.13;1.73;;;;;;;17.32;33.05;96458.53;5114022;28;20024;-27
2022/04/17 11:14:39;;;;;;;3.13;1.50;;;;;;;17.33;32.86;96457.31;5114100;28;20053;-27
2022/04/17 11:17:11;;;;;;;4.10;1.70;;;;;;;17.35;33.10;96462.31;5113691;28;20114;-27
2022/04/17 11:19:38;;;;;;;4.50;1.70;;;;;;;17.26;33.11;96460.44;5114402;28;20053;-27
2022/04/17 11:22:07;;;;;;;4.57;1.50;;;;;;;17.53;32.40;96468.41;5113453;28;20444;-27
2022/04/17 11:24:54;;;;;;;3.45;1.80;;;;;;;17.32;32.67;96446.81;5114118;28;20054;-27
2022/04/17 11:28:02;;;;;;;4.45;2.30;;;;;;;17.31;33.05;96467.25;5113628;28;20044;-27
2022/04/17 11:30:27;;;;;;;4.50;2.00;;;;;;;17.60;32.60;96440.63;5113689;28;20032;-27
2022/04/17 11:32:53;;;;;;;3.08;1.73;;;;;;;17.44;32.83;96459.50;5113846;28;20103;-27
2022/04/17 11:35:24;;;;;;;4.25;1.73;;;;;;;17.27;32.31;96461.19;5113641;28;20472;-27
2022/04/17 11:37:55;;;;;;;3.47;2.00;;;;;;;17.29;32.36;96445.78;5113679;28;20054;-29
2022/04/17 11:40:23;;;;;;;5.25;1.73;;;;;;;17.49;32.56;96439.66;5113524;28;20024;-27
2022/04/17 11:42:54;;;;;;;6.40;2.08;;;;;;;17.60;32.56;96440.63;5113769;28;20386;-27
2022/04/17 11:45:26;;;;;;;6.65;1.75;;;;;;;17.26;33.38;96430.28;5095533;28;20031;-27
2022/04/17 11:47:53;;;;;;;2.38;1.80;;;;;;;17.70;31.89;96432.31;5113684;28;20415;-28
2022/04/17 11:50:23;;;;;;;4.45;1.77;;;;;;;17.42;32.49;96427.09;5095526;28;20471;-27